sensor_id;sensor_type;location;lat;lon;timestamp;pressure;altitude;pressure_sealevel;temperature;humidity
57827;BME280;43656;57.746;11.780;2023-07-31T00:00:30;100144.38;;;18.21;100.00
57827;BME280;43656;57.746;11.780;2023-07-31T00:02:56;100142.50;;;18.21;100.00
57827;BME280;43656;57.746;11.780;2023-07-31T00:05:21;100132.63;;;18.10;100.00
57827;BME280;43656;57.746;11.780;2023-07-31T00:07:47;100124.44;;;18.05;100.00
57827;BME280;43656;57.746;11.780;2023-07-31T00:10:13;100135.59;;;18.03;100.00
57827;BME280;43656;57.746;11.780;2023-07-31T00:12:39;100148.97;;;18.10;100.00
57827;BME280;43656;57.746;11.780;2023-07-31T00:15:06;100135.31;;;18.00;100.00
57827;BME280;43656;57.746;11.780;2023-07-31T00:17:32;100126.56;;;17.93;100.00
57827;BME280;43656;57.746;11.780;2023-07-31T00:19:57;100122.47;;;17.90;100.00
57827;BME280;43656;57.746;11.780;2023-07-31T00:22:23;100138.56;;;17.97;100.00
57827;BME280;43656;57.746;11.780;2023-07-31T00:24:49;100143.72;;;17.93;100.00
57827;BME280;43656;57.746;11.780;2023-07-31T00:27:14;100146.72;;;17.92;100.00
57827;BME280;43656;57.746;11.780;2023-07-31T00:29:40;100147.22;;;17.89;100.00
57827;BME280;43656;57.746;11.780;2023-07-31T00:32:06;100099.63;;;17.54;100.00
57827;BME280;43656;57.746;11.780;2023-07-31T00:34:31;100143.66;;;17.83;100.00
57827;BME280;43656;57.746;11.780;2023-07-31T00:36:57;100146.31;;;17.78;100.00
57827;BME280;43656;57.746;11.780;2023-07-31T00:39:22;100146.84;;;17.75;100.00
57827;BME280;43656;57.746;11.780;2023-07-31T00:41:47;100129.91;;;17.68;100.00
57827;BME280;43656;57.746;11.780;2023-07-31T00:44:13;100139.97;;;17.67;100.00
57827;BME280;43656;57.746;11.780;2023-07-31T00:46:38;100139.16;;;17.67;100.00
57827;BME280;43656;57.746;11.780;2023-07-31T00:49:05;100120.34;;;17.55;100.00
57827;BME280;43656;57.746;11.780;2023-07-31T00:51:31;100139.41;;;17.60;100.00
57827;BME280;43656;57.746;11.780;2023-07-31T00:53:56;100131.72;;;17.52;100.00
57827;BME280;43656;57.746;11.780;2023-07-31T00:56:22;100127.94;;;17.53;100.00
57827;BME280;43656;57.746;11.780;2023-07-31T00:58:49;100120.28;;;17.50;100.00
57827;BME280;43656;57.746;11.780;2023-07-31T01:01:14;100109.84;;;17.36;100.00
57827;BME280;43656;57.746;11.780;2023-07-31T01:03:40;100112.31;;;17.38;100.00
57827;BME280;43656;57.746;11.780;2023-07-31T01:08:45;100129.19;;;17.40;100.00
57827;BME280;43656;57.746;11.780;2023-07-31T01:11:27;100127.78;;;17.32;100.00
57827;BME280;43656;57.746;11.780;2023-07-31T01:13:55;100120.38;;;17.23;100.00
57827;BME280;43656;57.746;11.780;2023-07-31T01:16:20;100107.44;;;17.08;100.00
57827;BME280;43656;57.746;11.780;2023-07-31T01:18:46;100130.13;;;17.19;100.00
57827;BME280;43656;57.746;11.780;2023-07-31T01:26:12;100140.06;;;17.08;100.00
57827;BME280;43656;57.746;11.780;2023-07-31T01:29:25;100129.75;;;17.10;100.00
57827;BME280;43656;57.746;11.780;2023-07-31T01:31:47;100119.91;;;17.04;100.00
57827;BME280;43656;57.746;11.780;2023-07-31T01:34:14;100119.41;;;17.07;100.00
57827;BME280;43656;57.746;11.780;2023-07-31T01:36:43;100116.41;;;17.08;100.00
57827;BME280;43656;57.746;11.780;2023-07-31T01:39:08;100116.97;;;17.05;100.00
57827;BME280;43656;57.746;11.780;2023-07-31T01:41:33;100102.53;;;17.05;100.00
57827;BME280;43656;57.746;11.780;2023-07-31T01:43:59;100093.25;;;17.01;100.00
57827;BME280;43656;57.746;11.780;2023-07-31T01:46:24;100097.38;;;17.03;100.00
57827;BME280;43656;57.746;11.780;2023-07-31T01:48:50;100097.06;;;17.00;100.00
57827;BME280;43656;57.746;11.780;2023-07-31T01:51:15;100098.44;;;17.02;100.00
57827;BME280;43656;57.746;11.780;2023-07-31T01:53:41;100095.72;;;17.02;100.00
57827;BME280;43656;57.746;11.780;2023-07-31T01:56:06;100097.38;;;17.03;100.00
57827;BME280;43656;57.746;11.780;2023-07-31T01:58:32;100096.28;;;17.04;100.00
57827;BME280;43656;57.746;11.780;2023-07-31T02:00:57;100069.81;;;16.95;100.00
57827;BME280;43656;57.746;11.780;2023-07-31T02:03:22;100088.69;;;17.06;100.00
57827;BME280;43656;57.746;11.780;2023-07-31T02:05:50;100089.50;;;17.07;100.00
57827;BME280;43656;57.746;11.780;2023-07-31T02:08:16;100065.22;;;16.95;100.00
57827;BME280;43656;57.746;11.780;2023-07-31T02:10:41;100082.44;;;17.06;100.00
57827;BME280;43656;57.746;11.780;2023-07-31T02:13:07;100077.00;;;17.06;100.00
57827;BME280;43656;57.746;11.780;2023-07-31T02:15:33;100087.88;;;17.06;100.00
57827;BME280;43656;57.746;11.780;2023-07-31T02:17:58;100084.34;;;17.05;100.00
57827;BME280;43656;57.746;11.780;2023-07-31T02:20:24;100060.88;;;16.94;100.00
57827;BME280;43656;57.746;11.780;2023-07-31T02:22:49;100078.13;;;17.10;100.00
57827;BME280;43656;57.746;11.780;2023-07-31T02:25:15;100075.09;;;17.06;100.00
57827;BME280;43656;57.746;11.780;2023-07-31T02:27:40;100080.03;;;17.14;100.00
57827;BME280;43656;57.746;11.780;2023-07-31T02:30:06;100079.53;;;17.18;100.00
57827;BME280;43656;57.746;11.780;2023-07-31T02:32:32;100082.53;;;17.21;100.00
57827;BME280;43656;57.746;11.780;2023-07-31T02:34:57;100064.53;;;17.10;100.00
57827;BME280;43656;57.746;11.780;2023-07-31T02:37:23;100085.84;;;17.23;100.00
57827;BME280;43656;57.746;11.780;2023-07-31T02:39:49;100061.00;;;17.14;100.00
57827;BME280;43656;57.746;11.780;2023-07-31T02:42:14;100087.50;;;17.29;100.00
57827;BME280;43656;57.746;11.780;2023-07-31T02:44:40;100083.69;;;17.30;100.00
57827;BME280;43656;57.746;11.780;2023-07-31T02:47:05;100082.09;;;17.34;100.00
57827;BME280;43656;57.746;11.780;2023-07-31T02:49:31;100072.81;;;17.30;100.00
57827;BME280;43656;57.746;11.780;2023-07-31T02:51:56;100076.13;;;17.37;100.00
57827;BME280;43656;57.746;11.780;2023-07-31T02:54:22;100050.50;;;17.23;100.00
57827;BME280;43656;57.746;11.780;2023-07-31T02:56:47;100072.59;;;17.37;100.00
57827;BME280;43656;57.746;11.780;2023-07-31T02:59:13;100070.16;;;17.41;100.00
57827;BME280;43656;57.746;11.780;2023-07-31T03:01:38;100063.06;;;17.34;100.00
57827;BME280;43656;57.746;11.780;2023-07-31T03:04:04;100069.59;;;17.33;100.00
57827;BME280;43656;57.746;11.780;2023-07-31T03:06:30;100065.78;;;17.34;100.00
57827;BME280;43656;57.746;11.780;2023-07-31T03:08:55;100061.19;;;17.40;100.00
57827;BME280;43656;57.746;11.780;2023-07-31T03:11:21;100045.63;;;17.30;100.00
57827;BME280;43656;57.746;11.780;2023-07-31T03:13:46;100035.25;;;17.22;100.00
57827;BME280;43656;57.746;11.780;2023-07-31T03:16:12;100062.81;;;17.41;100.00
57827;BME280;43656;57.746;11.780;2023-07-31T03:18:38;100064.72;;;17.41;100.00
57827;BME280;43656;57.746;11.780;2023-07-31T03:21:04;100057.91;;;17.33;100.00
57827;BME280;43656;57.746;11.780;2023-07-31T03:23:29;100065.81;;;17.40;100.00
57827;BME280;43656;57.746;11.780;2023-07-31T03:26:00;100054.66;;;17.36;100.00
57827;BME280;43656;57.746;11.780;2023-07-31T03:28:26;100035.31;;;17.32;100.00
57827;BME280;43656;57.746;11.780;2023-07-31T03:30:52;100050.38;;;17.45;100.00
57827;BME280;43656;57.746;11.780;2023-07-31T03:33:17;100055.81;;;17.45;100.00
57827;BME280;43656;57.746;11.780;2023-07-31T03:35:43;100040.81;;;17.43;100.00
57827;BME280;43656;57.746;11.780;2023-07-31T03:38:08;100054.97;;;17.45;100.00
57827;BME280;43656;57.746;11.780;2023-07-31T03:40:34;100053.63;;;17.47;100.00
57827;BME280;43656;57.746;11.780;2023-07-31T03:42:59;100053.63;;;17.47;100.00
57827;BME280;43656;57.746;11.780;2023-07-31T03:45:24;100047.94;;;17.49;100.00
57827;BME280;43656;57.746;11.780;2023-07-31T03:47:50;100050.66;;;17.54;100.00
57827;BME280;43656;57.746;11.780;2023-07-31T03:50:15;100050.66;;;17.54;100.00
57827;BME280;43656;57.746;11.780;2023-07-31T03:52:41;100034.03;;;17.45;100.00
57827;BME280;43656;57.746;11.780;2023-07-31T03:55:07;100020.63;;;17.33;100.00
57827;BME280;43656;57.746;11.780;2023-07-31T03:57:32;100040.34;;;17.56;100.00
57827;BME280;43656;57.746;11.780;2023-07-31T03:59:58;100050.72;;;17.64;100.00
57827;BME280;43656;57.746;11.780;2023-07-31T04:02:24;100045.28;;;17.64;100.00
57827;BME280;43656;57.746;11.780;2023-07-31T04:04:49;100043.88;;;17.56;100.00
57827;BME280;43656;57.746;11.780;2023-07-31T04:07:14;100034.34;;;17.54;100.00
57827;BME280;43656;57.746;11.780;2023-07-31T04:09:40;100037.34;;;17.52;100.00
57827;BME280;43656;57.746;11.780;2023-07-31T04:12:06;100037.88;;;17.54;100.00
57827;BME280;43656;57.746;11.780;2023-07-31T04:14:31;100043.06;;;17.56;100.00
57827;BME280;43656;57.746;11.780;2023-07-31T04:16:56;100043.59;;;17.58;100.00
57827;BME280;43656;57.746;11.780;2023-07-31T04:19:22;100039.56;;;17.60;100.00
57827;BME280;43656;57.746;11.780;2023-07-31T04:21:47;100020.75;;;17.54;100.00
57827;BME280;43656;57.746;11.780;2023-07-31T04:24:13;100030.56;;;17.60;100.00
57827;BME280;43656;57.746;11.780;2023-07-31T04:26:38;100032.25;;;17.66;100.00
57827;BME280;43656;57.746;11.780;2023-07-31T04:29:03;100033.63;;;17.69;100.00
57827;BME280;43656;57.746;11.780;2023-07-31T04:31:29;100039.88;;;17.69;100.00
57827;BME280;43656;57.746;11.780;2023-07-31T04:33:56;100039.38;;;17.77;100.00
57827;BME280;43656;57.746;11.780;2023-07-31T04:36:21;100029.31;;;17.78;100.00
57827;BME280;43656;57.746;11.780;2023-07-31T04:38:46;100028.78;;;17.81;100.00
57827;BME280;43656;57.746;11.780;2023-07-31T04:41:12;100004.81;;;17.78;100.00
57827;BME280;43656;57.746;11.780;2023-07-31T04:43:37;100021.50;;;17.92;100.00
57827;BME280;43656;57.746;11.780;2023-07-31T04:46:05;100021.78;;;17.95;100.00
57827;BME280;43656;57.746;11.780;2023-07-31T04:48:30;100018.22;;;17.90;100.00
57827;BME280;43656;57.746;11.780;2023-07-31T04:50:56;100019.78;;;17.75;100.00
57827;BME280;43656;57.746;11.780;2023-07-31T04:53:21;100005.56;;;17.63;100.00
57827;BME280;43656;57.746;11.780;2023-07-31T04:55:46;100012.59;;;17.54;100.00
57827;BME280;43656;57.746;11.780;2023-07-31T04:58:12;100015.84;;;17.51;100.00
57827;BME280;43656;57.746;11.780;2023-07-31T05:00:37;100030.97;;;17.84;100.00
57827;BME280;43656;57.746;11.780;2023-07-31T05:03:02;100024.50;;;17.95;100.00
57827;BME280;43656;57.746;11.780;2023-07-31T05:05:28;100015.28;;;18.06;100.00
57827;BME280;43656;57.746;11.780;2023-07-31T05:07:53;100022.09;;;18.09;100.00
57827;BME280;43656;57.746;11.780;2023-07-31T05:10:19;100004.63;;;18.00;100.00
57827;BME280;43656;57.746;11.780;2023-07-31T05:12:44;100012.28;;;18.03;100.00
57827;BME280;43656;57.746;11.780;2023-07-31T05:15:10;100018.56;;;18.08;100.00
57827;BME280;43656;57.746;11.780;2023-07-31T05:17:35;100012.66;;;19.24;100.00
57827;BME280;43656;57.746;11.780;2023-07-31T05:20:01;100008.09;;;20.34;100.00
57827;BME280;43656;57.746;11.780;2023-07-31T05:22:26;100002.75;;;20.92;100.00
57827;BME280;43656;57.746;11.780;2023-07-31T05:24:52;100004.13;;;21.19;100.00
57827;BME280;43656;57.746;11.780;2023-07-31T05:27:19;100000.41;;;21.39;100.00
57827;BME280;43656;57.746;11.780;2023-07-31T05:29:45;99994.53;;;20.92;100.00
57827;BME280;43656;57.746;11.780;2023-07-31T05:32:11;99992.34;;;20.94;100.00
57827;BME280;43656;57.746;11.780;2023-07-31T05:34:36;99979.88;;;20.83;100.00
57827;BME280;43656;57.746;11.780;2023-07-31T05:37:02;99993.81;;;20.81;100.00
57827;BME280;43656;57.746;11.780;2023-07-31T05:39:27;99990.94;;;20.68;100.00
57827;BME280;43656;57.746;11.780;2023-07-31T05:41:53;99999.94;;;20.68;100.00
57827;BME280;43656;57.746;11.780;2023-07-31T05:44:18;99992.13;;;20.56;100.00
57827;BME280;43656;57.746;11.780;2023-07-31T05:46:44;99993.75;;;20.57;100.00
57827;BME280;43656;57.746;11.780;2023-07-31T05:49:09;99997.38;;;20.42;100.00
57827;BME280;43656;57.746;11.780;2023-07-31T05:51:35;99985.38;;;20.38;100.00
57827;BME280;43656;57.746;11.780;2023-07-31T05:54:00;99979.03;;;20.53;100.00
57827;BME280;43656;57.746;11.780;2023-07-31T05:56:26;99988.16;;;20.73;100.00
57827;BME280;43656;57.746;11.780;2023-07-31T05:58:52;99986.00;;;20.99;100.00
57827;BME280;43656;57.746;11.780;2023-07-31T06:01:18;99987.03;;;21.32;100.00
57827;BME280;43656;57.746;11.780;2023-07-31T06:03:43;99991.47;;;21.28;100.00
57827;BME280;43656;57.746;11.780;2023-07-31T06:06:09;99990.03;;;21.60;100.00
57827;BME280;43656;57.746;11.780;2023-07-31T06:08:34;99987.06;;;21.56;100.00
57827;BME280;43656;57.746;11.780;2023-07-31T06:11:00;99984.13;;;21.52;100.00
57827;BME280;43656;57.746;11.780;2023-07-31T06:13:25;99992.56;;;21.75;100.00
57827;BME280;43656;57.746;11.780;2023-07-31T06:15:50;99968.69;;;21.80;100.00
57827;BME280;43656;57.746;11.780;2023-07-31T06:18:16;99985.28;;;21.89;100.00
57827;BME280;43656;57.746;11.780;2023-07-31T06:20:41;99987.03;;;21.80;100.00
57827;BME280;43656;57.746;11.780;2023-07-31T06:23:07;99983.16;;;21.62;100.00
57827;BME280;43656;57.746;11.780;2023-07-31T06:25:33;99968.19;;;21.30;100.00
57827;BME280;43656;57.746;11.780;2023-07-31T06:27:58;99981.25;;;21.39;100.00
57827;BME280;43656;57.746;11.780;2023-07-31T06:30:24;99973.41;;;21.27;100.00
57827;BME280;43656;57.746;11.780;2023-07-31T06:32:49;99961.47;;;21.18;100.00
57827;BME280;43656;57.746;11.780;2023-07-31T06:35:14;99968.09;;;21.11;100.00
57827;BME280;43656;57.746;11.780;2023-07-31T06:37:40;99974.72;;;21.05;100.00
57827;BME280;43656;57.746;11.780;2023-07-31T06:40:08;99954.41;;;20.87;100.00
57827;BME280;43656;57.746;11.780;2023-07-31T06:42:34;99963.38;;;20.93;100.00
57827;BME280;43656;57.746;11.780;2023-07-31T06:45:01;99971.63;;;20.88;99.80
57827;BME280;43656;57.746;11.780;2023-07-31T06:47:26;99969.53;;;20.80;100.00
57827;BME280;43656;57.746;11.780;2023-07-31T06:49:51;99974.16;;;20.79;100.00
57827;BME280;43656;57.746;11.780;2023-07-31T06:52:17;99976.88;;;20.79;100.00
57827;BME280;43656;57.746;11.780;2023-07-31T06:54:42;99978.31;;;20.72;100.00
57827;BME280;43656;57.746;11.780;2023-07-31T06:57:07;99980.03;;;20.62;100.00
57827;BME280;43656;57.746;11.780;2023-07-31T06:59:33;99976.53;;;20.57;100.00
57827;BME280;43656;57.746;11.780;2023-07-31T07:01:58;99979.91;;;20.44;100.00
57827;BME280;43656;57.746;11.780;2023-07-31T07:04:24;99958.53;;;20.11;100.00
57827;BME280;43656;57.746;11.780;2023-07-31T07:06:49;99958.63;;;19.96;100.00
57827;BME280;43656;57.746;11.780;2023-07-31T07:09:15;99998.50;;;19.92;100.00
57827;BME280;43656;57.746;11.780;2023-07-31T07:11:40;99998.06;;;19.75;100.00
57827;BME280;43656;57.746;11.780;2023-07-31T07:14:06;99997.81;;;19.66;100.00
57827;BME280;43656;57.746;11.780;2023-07-31T07:16:31;99991.84;;;19.43;100.00
57827;BME280;43656;57.746;11.780;2023-07-31T07:18:57;100004.72;;;19.28;100.00
57827;BME280;43656;57.746;11.780;2023-07-31T07:21:22;100007.75;;;19.16;100.00
57827;BME280;43656;57.746;11.780;2023-07-31T07:23:48;99997.09;;;19.19;100.00
57827;BME280;43656;57.746;11.780;2023-07-31T07:26:13;99996.56;;;19.17;100.00
57827;BME280;43656;57.746;11.780;2023-07-31T07:28:39;99995.19;;;19.25;100.00
57827;BME280;43656;57.746;11.780;2023-07-31T07:31:04;99988.63;;;19.31;100.00
57827;BME280;43656;57.746;11.780;2023-07-31T07:33:30;99992.13;;;19.37;100.00
57827;BME280;43656;57.746;11.780;2023-07-31T07:35:59;99989.91;;;19.49;100.00
57827;BME280;43656;57.746;11.780;2023-07-31T07:38:24;99987.69;;;19.61;100.00
57827;BME280;43656;57.746;11.780;2023-07-31T07:40:51;99974.03;;;19.66;100.00
57827;BME280;43656;57.746;11.780;2023-07-31T07:43:18;99962.63;;;19.64;100.00
57827;BME280;43656;57.746;11.780;2023-07-31T07:45:43;99981.56;;;19.90;100.00
57827;BME280;43656;57.746;11.780;2023-07-31T07:48:09;99964.69;;;19.88;100.00
57827;BME280;43656;57.746;11.780;2023-07-31T07:50:34;99971.72;;;19.99;100.00
57827;BME280;43656;57.746;11.780;2023-07-31T07:52:59;99979.88;;;20.04;100.00
57827;BME280;43656;57.746;11.780;2023-07-31T07:55:25;99964.31;;;20.05;100.00
57827;BME280;43656;57.746;11.780;2023-07-31T07:57:51;99975.97;;;20.15;100.00
57827;BME280;43656;57.746;11.780;2023-07-31T08:00:17;99979.28;;;20.12;100.00
57827;BME280;43656;57.746;11.780;2023-07-31T08:02:43;99977.34;;;20.18;100.00
57827;BME280;43656;57.746;11.780;2023-07-31T08:05:09;99972.16;;;20.16;100.00
57827;BME280;43656;57.746;11.780;2023-07-31T08:07:34;99978.97;;;20.19;100.00
57827;BME280;43656;57.746;11.780;2023-07-31T08:10:00;99947.69;;;19.96;100.00
57827;BME280;43656;57.746;11.780;2023-07-31T08:12:25;99977.59;;;20.22;100.00
57827;BME280;43656;57.746;11.780;2023-07-31T08:14:51;99974.78;;;20.32;100.00
57827;BME280;43656;57.746;11.780;2023-07-31T08:17:17;99964.00;;;20.46;100.00
57827;BME280;43656;57.746;11.780;2023-07-31T08:19:42;99960.16;;;20.57;100.00
57827;BME280;43656;57.746;11.780;2023-07-31T08:22:09;99957.09;;;20.63;100.00
57827;BME280;43656;57.746;11.780;2023-07-31T08:24:34;99958.13;;;20.68;100.00
57827;BME280;43656;57.746;11.780;2023-07-31T08:27:00;99967.94;;;20.74;100.00
57827;BME280;43656;57.746;11.780;2023-07-31T08:29:25;99958.25;;;20.52;100.00
57827;BME280;43656;57.746;11.780;2023-07-31T08:31:51;99953.91;;;20.51;100.00
57827;BME280;43656;57.746;11.780;2023-07-31T08:34:16;99973.75;;;20.62;100.00
57827;BME280;43656;57.746;11.780;2023-07-31T08:36:42;99973.88;;;20.47;100.00
57827;BME280;43656;57.746;11.780;2023-07-31T08:39:08;99961.59;;;20.39;99.78
57827;BME280;43656;57.746;11.780;2023-07-31T08:41:39;99949.34;;;20.36;99.11
57827;BME280;43656;57.746;11.780;2023-07-31T08:44:06;99959.38;;;20.46;98.36
57827;BME280;43656;57.746;11.780;2023-07-31T08:46:32;99957.97;;;20.54;97.58
57827;BME280;43656;57.746;11.780;2023-07-31T08:48:59;99961.88;;;20.77;97.13
57827;BME280;43656;57.746;11.780;2023-07-31T08:51:26;99963.22;;;20.79;97.26
57827;BME280;43656;57.746;11.780;2023-07-31T08:53:53;99957.47;;;20.81;97.25
57827;BME280;43656;57.746;11.780;2023-07-31T08:56:18;99969.31;;;21.00;97.07
57827;BME280;43656;57.746;11.780;2023-07-31T08:58:45;99947.78;;;21.18;96.34
57827;BME280;43656;57.746;11.780;2023-07-31T09:01:13;99931.16;;;21.14;95.64
57827;BME280;43656;57.746;11.780;2023-07-31T09:03:40;99956.41;;;21.30;95.42
57827;BME280;43656;57.746;11.780;2023-07-31T09:06:07;99948.75;;;21.56;93.88
57827;BME280;43656;57.746;11.780;2023-07-31T09:08:32;99956.16;;;21.74;93.20
57827;BME280;43656;57.746;11.780;2023-07-31T09:11:02;99954.16;;;21.61;92.70
57827;BME280;43656;57.746;11.780;2023-07-31T09:13:31;99952.00;;;21.58;91.89
57827;BME280;43656;57.746;11.780;2023-07-31T09:15:57;99955.28;;;21.36;91.75
57827;BME280;43656;57.746;11.780;2023-07-31T09:18:23;99951.88;;;21.20;91.91
57827;BME280;43656;57.746;11.780;2023-07-31T09:21:09;99952.91;;;21.24;91.39
57827;BME280;43656;57.746;11.780;2023-07-31T09:23:45;99947.16;;;21.26;90.96
57827;BME280;43656;57.746;11.780;2023-07-31T09:26:10;99953.16;;;21.28;90.46
57827;BME280;43656;57.746;11.780;2023-07-31T09:28:36;99948.72;;;21.32;90.30
57827;BME280;43656;57.746;11.780;2023-07-31T09:31:01;99944.00;;;21.43;90.21
57827;BME280;43656;57.746;11.780;2023-07-31T09:33:27;99943.63;;;21.49;89.85
57827;BME280;43656;57.746;11.780;2023-07-31T09:35:52;99949.13;;;21.49;89.38
57827;BME280;43656;57.746;11.780;2023-07-31T09:38:18;99940.94;;;21.44;88.99
57827;BME280;43656;57.746;11.780;2023-07-31T09:40:47;99949.16;;;21.44;88.77
57827;BME280;43656;57.746;11.780;2023-07-31T09:43:17;99947.91;;;21.55;88.91
57827;BME280;43656;57.746;11.780;2023-07-31T09:45:44;99941.13;;;21.53;88.24
57827;BME280;43656;57.746;11.780;2023-07-31T09:48:15;99933.53;;;21.45;87.96
57827;BME280;43656;57.746;11.780;2023-07-31T09:50:43;99943.16;;;21.66;87.94
57827;BME280;43656;57.746;11.780;2023-07-31T09:53:09;99942.34;;;21.66;88.32
57827;BME280;43656;57.746;11.780;2023-07-31T09:55:36;99936.50;;;21.91;87.27
57827;BME280;43656;57.746;11.780;2023-07-31T09:58:12;99940.88;;;21.92;86.90
57827;BME280;43656;57.746;11.780;2023-07-31T10:00:38;99938.06;;;21.97;85.96
57827;BME280;43656;57.746;11.780;2023-07-31T10:03:05;99932.50;;;21.84;85.98
57827;BME280;43656;57.746;11.780;2023-07-31T10:05:35;99929.44;;;21.85;85.53
57827;BME280;43656;57.746;11.780;2023-07-31T10:08:01;99933.16;;;21.94;85.10
57827;BME280;43656;57.746;11.780;2023-07-31T10:10:27;99930.28;;;22.04;84.97
57827;BME280;43656;57.746;11.780;2023-07-31T10:12:54;99934.34;;;22.07;84.38
57827;BME280;43656;57.746;11.780;2023-07-31T10:15:21;99933.44;;;22.12;83.53
57827;BME280;43656;57.746;11.780;2023-07-31T10:17:48;99925.97;;;22.36;82.86
57827;BME280;43656;57.746;11.780;2023-07-31T10:20:14;99934.59;;;22.62;82.28
57827;BME280;43656;57.746;11.780;2023-07-31T10:22:42;99917.81;;;22.50;82.50
57827;BME280;43656;57.746;11.780;2023-07-31T10:25:08;99920.88;;;22.62;81.94
57827;BME280;43656;57.746;11.780;2023-07-31T10:27:35;99935.59;;;22.52;81.67
57827;BME280;43656;57.746;11.780;2023-07-31T10:30:03;99939.66;;;22.55;81.22
57827;BME280;43656;57.746;11.780;2023-07-31T10:32:29;99932.94;;;22.61;80.83
57827;BME280;43656;57.746;11.780;2023-07-31T10:34:55;99915.41;;;22.62;79.73
57827;BME280;43656;57.746;11.780;2023-07-31T10:37:26;99923.13;;;23.07;78.34
57827;BME280;43656;57.746;11.780;2023-07-31T10:40:03;99919.25;;;23.35;77.75
57827;BME280;43656;57.746;11.780;2023-07-31T10:42:55;99889.78;;;23.00;77.40
57827;BME280;43656;57.746;11.780;2023-07-31T10:48:04;99899.63;;;23.42;76.54
57827;BME280;43656;57.746;11.780;2023-07-31T10:50:31;99906.53;;;23.81;75.13
57827;BME280;43656;57.746;11.780;2023-07-31T10:53:00;99904.63;;;23.90;74.12
57827;BME280;43656;57.746;11.780;2023-07-31T10:55:33;99906.22;;;24.05;73.36
57827;BME280;43656;57.746;11.780;2023-07-31T10:58:09;99905.00;;;24.11;72.57
57827;BME280;43656;57.746;11.780;2023-07-31T11:00:40;99906.97;;;23.97;72.62
57827;BME280;43656;57.746;11.780;2023-07-31T11:03:13;99904.50;;;23.73;72.95
57827;BME280;43656;57.746;11.780;2023-07-31T11:08:22;99899.09;;;23.67;72.87
57827;BME280;43656;57.746;11.780;2023-07-31T11:11:10;99908.75;;;23.65;72.94
57827;BME280;43656;57.746;11.780;2023-07-31T11:13:52;99905.50;;;23.77;72.40
57827;BME280;43656;57.746;11.780;2023-07-31T11:16:22;99902.16;;;24.02;72.39
57827;BME280;43656;57.746;11.780;2023-07-31T11:18:48;99895.34;;;24.00;72.20
57827;BME280;43656;57.746;11.780;2023-07-31T11:21:16;99885.78;;;23.97;71.78
57827;BME280;43656;57.746;11.780;2023-07-31T11:23:49;99904.22;;;24.19;71.86
57827;BME280;43656;57.746;11.780;2023-07-31T11:26:15;99899.63;;;24.28;70.17
57827;BME280;43656;57.746;11.780;2023-07-31T11:28:41;99889.88;;;23.36;70.67
57827;BME280;43656;57.746;11.780;2023-07-31T11:31:10;99888.00;;;23.73;70.60
57827;BME280;43656;57.746;11.780;2023-07-31T11:33:36;99890.56;;;24.05;69.24
57827;BME280;43656;57.746;11.780;2023-07-31T11:36:01;99884.56;;;24.26;69.36
57827;BME280;43656;57.746;11.780;2023-07-31T11:38:29;99891.75;;;24.58;68.78
57827;BME280;43656;57.746;11.780;2023-07-31T11:40:56;99880.41;;;24.91;67.41
57827;BME280;43656;57.746;11.780;2023-07-31T11:43:22;99875.94;;;25.03;67.20
57827;BME280;43656;57.746;11.780;2023-07-31T11:45:50;99877.16;;;25.28;65.99
57827;BME280;43656;57.746;11.780;2023-07-31T11:50:46;99869.06;;;25.32;62.68
57827;BME280;43656;57.746;11.780;2023-07-31T11:53:12;99870.88;;;25.45;62.41
57827;BME280;43656;57.746;11.780;2023-07-31T11:55:38;99870.59;;;25.47;62.61
57827;BME280;43656;57.746;11.780;2023-07-31T11:58:04;99870.56;;;25.38;61.34
57827;BME280;43656;57.746;11.780;2023-07-31T12:00:32;99874.78;;;25.44;60.74
57827;BME280;43656;57.746;11.780;2023-07-31T12:02:57;99876.56;;;25.49;61.20
57827;BME280;43656;57.746;11.780;2023-07-31T12:05:23;99870.84;;;25.28;61.26
57827;BME280;43656;57.746;11.780;2023-07-31T12:07:54;99860.69;;;24.97;61.82
57827;BME280;43656;57.746;11.780;2023-07-31T12:13:09;99862.03;;;25.08;61.06
57827;BME280;43656;57.746;11.780;2023-07-31T12:15:41;99867.69;;;25.03;61.73
57827;BME280;43656;57.746;11.780;2023-07-31T12:18:15;99855.53;;;25.04;62.44
57827;BME280;43656;57.746;11.780;2023-07-31T12:20:46;99864.69;;;25.22;61.82
57827;BME280;43656;57.746;11.780;2023-07-31T12:23:36;99863.91;;;25.39;61.55
57827;BME280;43656;57.746;11.780;2023-07-31T12:26:07;99862.31;;;25.47;61.33
57827;BME280;43656;57.746;11.780;2023-07-31T12:28:50;99870.06;;;25.45;61.14
57827;BME280;43656;57.746;11.780;2023-07-31T12:31:23;99872.69;;;25.59;61.65
57827;BME280;43656;57.746;11.780;2023-07-31T12:33:50;99868.94;;;25.46;61.21
57827;BME280;43656;57.746;11.780;2023-07-31T12:36:17;99872.34;;;25.43;60.69
57827;BME280;43656;57.746;11.780;2023-07-31T12:38:44;99870.41;;;25.43;60.13
57827;BME280;43656;57.746;11.780;2023-07-31T12:41:09;99864.91;;;25.52;59.78
57827;BME280;43656;57.746;11.780;2023-07-31T12:43:36;99863.63;;;25.75;58.98
57827;BME280;43656;57.746;11.780;2023-07-31T12:46:02;99858.66;;;25.86;59.05
57827;BME280;43656;57.746;11.780;2023-07-31T12:48:28;99827.97;;;25.62;58.19
57827;BME280;43656;57.746;11.780;2023-07-31T12:50:54;99853.56;;;25.45;58.96
57827;BME280;43656;57.746;11.780;2023-07-31T12:53:20;99858.56;;;25.34;59.42